createdAt,value
2018-03-18T00:00:38.949Z,16.56
2018-03-18T00:03:05.494Z,16.68
2018-03-18T00:05:31.851Z,16.67
2018-03-18T00:07:58.282Z,16.63
2018-03-18T00:10:24.614Z,16.63
2018-03-18T00:12:50.978Z,16.65
2018-03-18T00:15:17.322Z,16.63
2018-03-18T00:17:43.690Z,16.67
2018-03-18T00:20:10.041Z,16.61
2018-03-18T00:22:36.398Z,16.54
2018-03-18T00:25:02.838Z,16.46
2018-03-18T00:27:29.205Z,16.54
2018-03-18T00:29:55.569Z,16.55
2018-03-18T00:32:21.972Z,16.54
2018-03-18T00:34:48.354Z,16.56
2018-03-18T00:37:14.709Z,16.61
2018-03-18T00:39:41.083Z,16.56
2018-03-18T00:42:07.469Z,16.54
2018-03-18T00:44:33.803Z,16.55
2018-03-18T00:47:00.145Z,16.61
2018-03-18T00:49:26.525Z,16.62
2018-03-18T00:52:00.114Z,16.64
2018-03-18T00:54:26.530Z,16.58
2018-03-18T00:56:52.990Z,16.57
2018-03-18T00:59:19.353Z,16.58
2018-03-18T01:01:45.706Z,16.54
2018-03-18T01:04:12.070Z,16.59
2018-03-18T01:06:38.482Z,16.66
2018-03-18T01:09:04.920Z,16.61
2018-03-18T01:11:31.260Z,16.62
2018-03-18T01:13:57.645Z,16.63
2018-03-18T01:16:24.562Z,16.59
2018-03-18T01:18:50.922Z,16.55
2018-03-18T01:21:17.298Z,16.52
2018-03-18T01:23:43.677Z,16.48
2018-03-18T01:26:10.064Z,16.48
2018-03-18T01:28:36.417Z,16.51
2018-03-18T01:31:02.793Z,16.49
2018-03-18T01:33:29.169Z,16.46
2018-03-18T01:35:55.514Z,16.48
2018-03-18T01:38:21.997Z,16.50
2018-03-18T01:40:48.386Z,16.54
2018-03-18T01:43:14.763Z,16.55
2018-03-18T01:45:41.130Z,16.51
2018-03-18T01:48:07.631Z,16.54
2018-03-18T01:50:34.018Z,16.51
2018-03-18T01:53:12.637Z,16.53
2018-03-18T01:55:38.937Z,16.58
2018-03-18T01:58:05.447Z,16.52
2018-03-18T02:00:31.855Z,16.62
2018-03-18T02:02:58.239Z,16.54
2018-03-18T02:05:24.602Z,16.56
2018-03-18T02:07:50.950Z,16.52
2018-03-18T02:10:17.317Z,16.63
2018-03-18T02:12:43.682Z,16.63
2018-03-18T02:15:10.169Z,16.61
2018-03-18T02:17:36.534Z,16.65
2018-03-18T02:20:02.930Z,16.65
2018-03-18T02:22:29.318Z,16.59
2018-03-18T02:24:55.713Z,16.73
2018-03-18T02:27:22.110Z,16.71
2018-03-18T02:29:48.498Z,16.86
2018-03-18T02:32:14.874Z,16.77
2018-03-18T02:34:41.261Z,16.82
2018-03-18T02:37:07.612Z,16.76
2018-03-18T02:39:33.974Z,16.71
2018-03-18T02:42:00.318Z,16.79
2018-03-18T02:44:26.814Z,16.81
2018-03-18T02:46:53.213Z,16.83
2018-03-18T02:49:19.602Z,16.80
2018-03-18T02:51:45.955Z,16.82
2018-03-18T02:54:12.320Z,16.78
2018-03-18T02:56:38.682Z,16.81
2018-03-18T02:59:05.046Z,16.78
2018-03-18T03:01:31.402Z,16.70
2018-03-18T03:03:57.757Z,16.71
2018-03-18T03:06:24.146Z,16.76
2018-03-18T03:08:50.526Z,16.79
2018-03-18T03:11:16.913Z,16.86
2018-03-18T03:13:43.271Z,16.86
2018-03-18T03:16:09.733Z,16.90
2018-03-18T03:18:36.085Z,16.98
2018-03-18T03:21:02.462Z,16.77
2018-03-18T03:23:28.811Z,16.82
2018-03-18T03:25:55.165Z,16.84
2018-03-18T03:28:21.694Z,16.85
2018-03-18T03:30:48.094Z,16.74
2018-03-18T03:33:14.459Z,16.79
2018-03-18T03:35:40.817Z,16.81
2018-03-18T03:38:07.229Z,16.81
2018-03-18T03:40:33.594Z,16.92
2018-03-18T03:42:59.943Z,16.89
2018-03-18T03:45:26.297Z,16.93
2018-03-18T03:47:52.653Z,16.95
2018-03-18T03:50:19.050Z,16.92
2018-03-18T03:52:45.413Z,16.95
2018-03-18T03:55:11.770Z,16.84
2018-03-18T03:57:38.129Z,16.85
2018-03-18T04:00:04.633Z,16.87
2018-03-18T04:02:31.026Z,16.73
2018-03-18T04:04:57.658Z,16.74
2018-03-18T04:07:24.020Z,16.76
2018-03-18T04:09:50.366Z,16.77
2018-03-18T04:12:16.730Z,16.79
2018-03-18T04:14:43.090Z,16.64
2018-03-18T04:17:09.461Z,16.47
2018-03-18T04:19:35.853Z,16.49
2018-03-18T04:22:02.240Z,16.50
2018-03-18T04:24:28.582Z,16.47
2018-03-18T04:26:54.945Z,16.55
2018-03-18T04:29:21.322Z,16.63
2018-03-18T04:31:47.731Z,16.43
2018-03-18T04:34:14.114Z,16.46
2018-03-18T04:36:40.470Z,16.53
2018-03-18T04:39:06.837Z,16.62
2018-03-18T04:41:33.208Z,16.53
2018-03-18T04:43:59.562Z,16.51
2018-03-18T04:46:25.902Z,16.45
2018-03-18T04:48:52.270Z,16.41
2018-03-18T04:51:18.689Z,16.46
2018-03-18T04:53:45.172Z,16.62
2018-03-18T04:56:11.553Z,16.65
2018-03-18T04:58:37.909Z,16.59
2018-03-18T05:01:04.320Z,16.58
2018-03-18T05:03:30.684Z,16.61
2018-03-18T05:05:57.218Z,16.73
2018-03-18T05:08:23.634Z,16.67
2018-03-18T05:10:49.977Z,16.73
2018-03-18T05:13:16.430Z,16.77
2018-03-18T05:15:42.778Z,16.73
2018-03-18T05:18:09.158Z,16.70
2018-03-18T05:20:35.569Z,16.63
2018-03-18T05:23:01.972Z,16.62
2018-03-18T05:25:28.542Z,16.84
2018-03-18T05:27:54.910Z,16.88
2018-03-18T05:30:21.266Z,16.91
2018-03-18T05:32:47.688Z,16.98
2018-03-18T05:35:14.059Z,16.97
2018-03-18T05:37:40.434Z,17.08
2018-03-18T05:40:06.794Z,17.09
2018-03-18T05:42:33.197Z,17.12
2018-03-18T05:44:59.569Z,16.99
2018-03-18T05:47:25.939Z,16.91
2018-03-18T05:49:52.317Z,16.89
2018-03-18T05:52:18.726Z,16.84
2018-03-18T05:54:45.146Z,16.75
2018-03-18T05:57:11.489Z,16.77
2018-03-18T05:59:37.858Z,16.68
2018-03-18T06:02:04.279Z,16.74
2018-03-18T06:04:30.690Z,16.77
2018-03-18T06:06:57.090Z,16.81
2018-03-18T06:09:23.497Z,16.66
2018-03-18T06:11:49.846Z,16.66
2018-03-18T06:14:16.856Z,16.66
2018-03-18T06:16:43.237Z,16.75
2018-03-18T06:19:09.638Z,16.74
2018-03-18T06:21:36.162Z,16.77
2018-03-18T06:24:02.718Z,16.85
2018-03-18T06:26:29.165Z,16.85
2018-03-18T06:28:55.533Z,17.01
2018-03-18T06:31:21.903Z,16.97
2018-03-18T06:33:48.274Z,16.95
2018-03-18T06:36:14.760Z,16.99
2018-03-18T06:38:41.210Z,16.99
2018-03-18T06:41:07.715Z,16.71
2018-03-18T06:43:34.102Z,16.43
2018-03-18T06:46:00.492Z,16.68
2018-03-18T06:48:26.919Z,16.69
2018-03-18T06:50:53.310Z,16.77
2018-03-18T06:53:19.746Z,16.58
2018-03-18T06:55:46.174Z,16.33
2018-03-18T06:58:12.570Z,16.40
2018-03-18T07:00:39.013Z,16.55
2018-03-18T07:03:05.592Z,16.56
2018-03-18T07:05:31.970Z,16.70
2018-03-18T07:07:58.347Z,16.70
2018-03-18T07:10:24.709Z,16.69
2018-03-18T07:12:51.125Z,16.64
2018-03-18T07:15:17.481Z,16.70
2018-03-18T07:17:43.855Z,16.88
2018-03-18T07:20:10.230Z,17.00
2018-03-18T07:22:36.630Z,16.95
2018-03-18T07:25:03.027Z,17.08
2018-03-18T07:27:29.476Z,17.08
2018-03-18T07:29:55.857Z,17.14
2018-03-18T07:32:22.226Z,17.24
2018-03-18T07:34:48.625Z,17.26
2018-03-18T07:37:15.023Z,17.28
2018-03-18T07:39:41.393Z,17.14
2018-03-18T07:42:07.823Z,17.10
2018-03-18T07:44:34.199Z,16.96
2018-03-18T07:47:00.641Z,16.80
2018-03-18T07:49:26.997Z,16.68
2018-03-18T07:51:53.490Z,16.55
2018-03-18T07:54:19.954Z,16.72
2018-03-18T07:56:46.368Z,16.59
2018-03-18T07:59:12.771Z,16.68
2018-03-18T08:01:39.149Z,16.79
2018-03-18T08:04:05.556Z,16.72
2018-03-18T08:06:32.003Z,16.61
2018-03-18T08:08:58.400Z,16.68
2018-03-18T08:11:25.055Z,16.74
2018-03-18T08:13:51.710Z,16.66
2018-03-18T08:16:18.168Z,16.64
2018-03-18T08:18:44.758Z,16.81
2018-03-18T08:21:11.217Z,16.74
2018-03-18T08:23:37.650Z,16.99
2018-03-18T08:26:04.142Z,16.70
2018-03-18T08:28:30.574Z,17.05
2018-03-18T08:30:57.011Z,17.12
2018-03-18T08:33:23.494Z,17.04
2018-03-18T08:35:49.886Z,17.29
2018-03-18T08:38:16.346Z,17.24
2018-03-18T08:40:42.755Z,17.30
2018-03-18T08:43:09.151Z,17.18
2018-03-18T08:45:37.514Z,17.22
2018-03-18T08:48:04.003Z,17.43
2018-03-18T08:50:30.394Z,17.25
2018-03-18T08:52:56.790Z,17.37
2018-03-18T08:55:23.162Z,17.42
2018-03-18T08:57:49.565Z,17.34
2018-03-18T09:00:16.030Z,17.17
2018-03-18T09:02:42.533Z,17.20
2018-03-18T09:05:08.935Z,17.05
2018-03-18T09:07:35.314Z,16.92
2018-03-18T09:10:01.740Z,17.06
2018-03-18T09:12:28.239Z,17.19
2018-03-18T09:14:54.617Z,17.20
2018-03-18T09:17:20.999Z,17.23
2018-03-18T09:19:47.354Z,17.35
2018-03-18T09:22:13.722Z,17.36
2018-03-18T09:24:40.095Z,17.50
2018-03-18T09:27:06.571Z,17.18
2018-03-18T09:29:33.065Z,17.31
2018-03-18T09:31:59.474Z,17.23
2018-03-18T09:34:25.878Z,17.24
2018-03-18T09:36:52.306Z,17.22
2018-03-18T09:39:18.818Z,17.16
2018-03-18T09:41:45.212Z,17.20
2018-03-18T09:44:11.632Z,17.42
2018-03-18T09:46:38.057Z,17.60
2018-03-18T09:49:04.430Z,17.57
2018-03-18T09:51:30.814Z,17.29
2018-03-18T09:53:57.221Z,17.51
2018-03-18T09:56:23.662Z,17.61
2018-03-18T09:58:50.213Z,17.58
2018-03-18T10:01:16.598Z,17.46
2018-03-18T10:03:43.073Z,17.31
2018-03-18T10:06:09.441Z,17.33
2018-03-18T10:08:35.870Z,17.24
2018-03-18T10:11:02.282Z,17.21
2018-03-18T10:13:28.718Z,17.30
2018-03-18T10:15:55.150Z,17.31
2018-03-18T10:18:21.571Z,17.38
2018-03-18T10:20:48.000Z,17.37
2018-03-18T10:23:14.429Z,17.31
2018-03-18T10:25:40.912Z,17.23
2018-03-18T10:28:07.440Z,17.04
2018-03-18T10:30:33.862Z,17.14
2018-03-18T10:33:00.588Z,17.15
2018-03-18T10:35:27.099Z,17.12
2018-03-18T10:37:53.561Z,17.00
2018-03-18T10:40:19.973Z,16.84
2018-03-18T10:42:46.397Z,16.91
2018-03-18T10:45:12.795Z,16.96
2018-03-18T10:47:39.434Z,16.97
2018-03-18T10:50:05.926Z,16.78
2018-03-18T10:52:32.370Z,16.73
2018-03-18T10:54:58.931Z,16.80
2018-03-18T10:57:25.530Z,16.74
2018-03-18T10:59:51.910Z,16.86
2018-03-18T11:02:22.425Z,16.72
2018-03-18T11:04:48.810Z,16.77
2018-03-18T11:07:15.215Z,16.62
2018-03-18T11:09:46.573Z,16.64
2018-03-18T11:12:16.192Z,16.69
2018-03-18T11:14:43.426Z,16.68
2018-03-18T11:17:09.858Z,16.67
2018-03-18T11:19:36.300Z,16.67
2018-03-18T11:22:02.770Z,16.70
2018-03-18T11:24:29.329Z,16.60
2018-03-18T11:26:55.779Z,16.70
2018-03-18T11:29:22.198Z,16.75
2018-03-18T11:31:48.638Z,16.65
2018-03-18T11:34:23.306Z,16.70
2018-03-18T11:36:49.781Z,16.67
2018-03-18T11:39:16.298Z,16.70
2018-03-18T11:41:42.694Z,16.60
2018-03-18T11:44:09.149Z,16.68
2018-03-18T11:46:35.590Z,16.72
2018-03-18T11:49:02.034Z,16.67
2018-03-18T11:51:28.515Z,16.65
2018-03-18T11:53:55.127Z,16.59
2018-03-18T11:56:21.553Z,16.60
2018-03-18T11:58:48.087Z,16.68
2018-03-18T12:01:14.491Z,16.72
2018-03-18T12:03:40.886Z,16.67
2018-03-18T12:06:07.315Z,16.72
2018-03-18T12:08:45.933Z,16.84
2018-03-18T12:11:12.306Z,16.80
2018-03-18T12:13:38.734Z,16.75
2018-03-18T12:16:05.173Z,16.73
2018-03-18T12:18:31.660Z,16.75
2018-03-18T12:20:58.058Z,16.79
2018-03-18T12:23:24.450Z,16.69
2018-03-18T12:25:50.837Z,16.75
2018-03-18T12:28:17.276Z,16.77
2018-03-18T12:30:43.698Z,16.65
2018-03-18T12:33:10.122Z,16.79
2018-03-18T12:35:36.541Z,16.86
2018-03-18T12:38:02.985Z,16.77
2018-03-18T12:40:32.337Z,16.75
2018-03-18T12:43:10.885Z,16.88
2018-03-18T12:45:37.227Z,16.93
2018-03-18T12:48:03.691Z,16.92
2018-03-18T12:50:30.172Z,16.69
2018-03-18T12:52:56.643Z,16.75
2018-03-18T12:55:23.066Z,16.84
2018-03-18T12:57:49.468Z,16.91
2018-03-18T13:00:15.838Z,16.93
2018-03-18T13:02:42.243Z,16.94
2018-03-18T13:05:08.725Z,16.87
2018-03-18T13:07:35.138Z,16.87
2018-03-18T13:10:01.565Z,16.88
2018-03-18T13:12:27.977Z,16.79
2018-03-18T13:14:54.430Z,16.94
2018-03-18T13:17:20.810Z,17.04
2018-03-18T13:19:47.266Z,17.06
2018-03-18T13:22:13.682Z,17.11
2018-03-18T13:24:40.150Z,17.06
2018-03-18T13:27:06.502Z,16.98
2018-03-18T13:29:32.875Z,16.97
2018-03-18T13:31:59.250Z,16.58
2018-03-18T13:34:25.633Z,16.34
2018-03-18T13:36:52.115Z,16.19
2018-03-18T13:39:18.506Z,16.07
2018-03-18T13:41:44.965Z,15.89
2018-03-18T13:44:11.405Z,15.92
2018-03-18T13:46:37.891Z,15.66
2018-03-18T13:49:04.286Z,15.88
2018-03-18T13:51:30.695Z,15.96
2018-03-18T13:53:57.104Z,15.93
2018-03-18T13:56:23.550Z,15.85
2018-03-18T13:58:49.945Z,15.97
2018-03-18T14:01:16.361Z,16.04
2018-03-18T14:03:43.210Z,15.97
2018-03-18T14:06:09.682Z,16.03
2018-03-18T14:08:36.186Z,16.00
2018-03-18T14:11:02.649Z,16.05
2018-03-18T14:13:29.398Z,16.06
2018-03-18T14:15:55.789Z,16.08
2018-03-18T14:18:22.190Z,16.09
2018-03-18T14:20:48.589Z,16.14
2018-03-18T14:23:15.006Z,16.22
2018-03-18T14:25:41.433Z,16.21
2018-03-18T14:28:07.817Z,16.15
2018-03-18T14:30:34.217Z,16.08
2018-03-18T14:33:00.677Z,16.02
2018-03-18T14:35:27.220Z,16.03
2018-03-18T14:37:53.626Z,15.88
2018-03-18T14:40:20.079Z,15.94
2018-03-18T14:42:46.502Z,15.99
2018-03-18T14:45:12.910Z,15.98
2018-03-18T14:47:39.286Z,15.98
2018-03-18T14:50:05.873Z,16.02
2018-03-18T14:52:32.340Z,16.06
2018-03-18T14:54:58.738Z,16.11
2018-03-18T14:57:25.150Z,16.12
2018-03-18T14:59:51.546Z,16.11
2018-03-18T15:02:17.967Z,16.08
2018-03-18T15:04:44.573Z,16.06
2018-03-18T15:07:11.097Z,16.10
2018-03-18T15:09:37.565Z,16.11
2018-03-18T15:12:04.030Z,16.08
2018-03-18T15:14:30.461Z,16.14
2018-03-18T15:16:56.870Z,16.16
2018-03-18T15:19:23.350Z,16.16
2018-03-18T15:21:49.710Z,16.18
2018-03-18T15:24:16.106Z,16.12
2018-03-18T15:26:42.485Z,16.13
2018-03-18T15:29:08.934Z,16.15
2018-03-18T15:31:35.330Z,16.14
2018-03-18T15:34:01.769Z,16.08
2018-03-18T15:36:28.181Z,15.99
2018-03-18T15:38:54.626Z,16.06
2018-03-18T15:41:21.199Z,16.09
2018-03-18T15:43:47.736Z,16.10
2018-03-18T15:46:14.206Z,16.12
2018-03-18T15:48:40.690Z,16.05
2018-03-18T15:51:07.118Z,16.07
2018-03-18T15:53:33.605Z,16.12
2018-03-18T15:56:00.098Z,16.07
2018-03-18T15:58:26.539Z,16.03
2018-03-18T16:00:52.946Z,16.06
2018-03-18T16:03:19.331Z,16.08
2018-03-18T16:05:45.775Z,16.04
2018-03-18T16:08:12.183Z,15.91
2018-03-18T16:10:38.610Z,15.96
2018-03-18T16:13:05.195Z,15.97
2018-03-18T16:15:31.686Z,16.01
2018-03-18T16:17:58.090Z,16.00
2018-03-18T16:20:24.487Z,15.98
2018-03-18T16:22:51.102Z,15.95
2018-03-18T16:25:17.787Z,15.94
2018-03-18T16:27:44.213Z,15.91
2018-03-18T16:30:22.713Z,15.87
2018-03-18T16:32:49.078Z,15.81
2018-03-18T16:35:15.491Z,15.65
2018-03-18T16:37:41.970Z,15.72
2018-03-18T16:40:08.586Z,15.74
2018-03-18T16:42:34.977Z,15.74
2018-03-18T16:45:01.714Z,15.73
2018-03-18T16:47:28.137Z,15.71
2018-03-18T16:49:54.567Z,15.69
2018-03-18T16:52:20.981Z,15.65
2018-03-18T16:54:47.374Z,15.58
2018-03-18T16:57:13.802Z,15.60
2018-03-18T16:59:40.271Z,15.55
2018-03-18T17:02:06.711Z,15.55
2018-03-18T17:04:33.147Z,15.52
2018-03-18T17:06:59.558Z,15.32
2018-03-18T17:09:25.958Z,15.11
2018-03-18T17:11:52.346Z,15.18
2018-03-18T17:14:18.745Z,15.28
2018-03-18T17:16:45.185Z,15.37
2018-03-18T17:19:11.626Z,15.32
2018-03-18T17:21:38.055Z,15.37
2018-03-18T17:24:04.595Z,15.29
2018-03-18T17:26:31.077Z,15.34
2018-03-18T17:28:57.522Z,15.41
2018-03-18T17:31:23.931Z,15.35
2018-03-18T17:33:50.487Z,15.30
2018-03-18T17:36:16.904Z,15.33
2018-03-18T17:38:43.366Z,15.33
2018-03-18T17:41:09.727Z,15.33
2018-03-18T17:43:36.121Z,15.35
2018-03-18T17:46:14.720Z,15.30
2018-03-18T17:48:53.383Z,15.28
2018-03-18T17:51:31.913Z,15.26
2018-03-18T17:54:10.490Z,15.22
2018-03-18T17:56:36.873Z,15.16
2018-03-18T17:59:03.338Z,15.22
2018-03-18T18:01:29.863Z,15.23
2018-03-18T18:03:56.257Z,15.19
2018-03-18T18:06:22.683Z,15.21
2018-03-18T18:08:49.135Z,15.21
2018-03-18T18:11:16.489Z,15.21
2018-03-18T18:13:42.910Z,15.23
2018-03-18T18:16:09.385Z,15.23
2018-03-18T18:18:35.794Z,15.24
2018-03-18T18:21:02.227Z,15.27
2018-03-18T18:23:28.663Z,15.25
2018-03-18T18:25:55.226Z,15.26
2018-03-18T18:28:21.671Z,15.25
2018-03-18T18:30:50.494Z,15.23
2018-03-18T18:33:16.898Z,15.27
2018-03-18T18:35:43.302Z,15.28
2018-03-18T18:38:09.721Z,15.29
2018-03-18T18:40:36.169Z,15.30
2018-03-18T18:43:02.638Z,15.25
2018-03-18T18:45:29.059Z,15.28
2018-03-18T18:47:55.458Z,15.26
2018-03-18T18:50:21.882Z,15.25
2018-03-18T18:52:48.363Z,15.29
2018-03-18T18:55:14.798Z,15.29
2018-03-18T18:57:41.205Z,15.30
2018-03-18T19:00:07.674Z,15.28
2018-03-18T19:02:34.145Z,15.30
2018-03-18T19:05:00.538Z,15.32
2018-03-18T19:07:26.933Z,15.26
2018-03-18T19:09:53.330Z,15.29
2018-03-18T19:12:19.702Z,15.32
2018-03-18T19:14:46.186Z,15.30
2018-03-18T19:17:12.685Z,15.37
2018-03-18T19:19:39.046Z,15.30
2018-03-18T19:22:05.490Z,15.20
2018-03-18T19:24:32.029Z,15.19
2018-03-18T19:26:58.488Z,15.04
2018-03-18T19:29:24.958Z,14.91
2018-03-18T19:31:51.354Z,15.08
2018-03-18T19:34:17.750Z,15.12
2018-03-18T19:36:44.323Z,14.94
2018-03-18T19:39:12.090Z,14.68
2018-03-18T19:41:38.611Z,14.64
2018-03-18T19:44:05.134Z,14.61
2018-03-18T19:46:31.577Z,14.58
2018-03-18T19:48:58.090Z,14.46
2018-03-18T19:51:24.486Z,13.93
2018-03-18T19:53:51.837Z,14.08
2018-03-18T19:56:18.286Z,14.21
2018-03-18T19:58:44.681Z,14.12
2018-03-18T20:01:11.084Z,14.17
2018-03-18T20:03:37.494Z,14.28
2018-03-18T20:06:04.019Z,14.19
2018-03-18T20:08:30.416Z,14.14
2018-03-18T20:10:56.882Z,13.97
2018-03-18T20:13:23.313Z,13.77
2018-03-18T20:15:49.777Z,13.88
2018-03-18T20:18:16.201Z,13.81
2018-03-18T20:20:42.742Z,13.78
2018-03-18T20:23:09.121Z,13.95
2018-03-18T20:25:35.676Z,13.35
2018-03-18T20:28:02.110Z,13.54
2018-03-18T20:30:28.562Z,13.46
2018-03-18T20:32:55.014Z,13.21
2018-03-18T20:35:21.392Z,13.21
2018-03-18T20:37:47.810Z,13.61
2018-03-18T20:40:14.258Z,13.26
2018-03-18T20:42:40.633Z,12.81
2018-03-18T20:45:07.128Z,12.74
2018-03-18T20:47:33.483Z,13.01
2018-03-18T20:49:59.962Z,12.68
2018-03-18T20:52:26.390Z,12.90
2018-03-18T20:54:52.795Z,13.12
2018-03-18T20:57:19.181Z,13.49
2018-03-18T20:59:45.602Z,13.17
2018-03-18T21:02:12.018Z,12.99
2018-03-18T21:04:38.480Z,12.95
2018-03-18T21:07:04.878Z,12.65
2018-03-18T21:09:31.337Z,12.93
2018-03-18T21:11:57.784Z,12.75
2018-03-18T21:14:24.238Z,12.82
2018-03-18T21:16:50.627Z,13.09
2018-03-18T21:19:17.037Z,12.85
2018-03-18T21:21:43.441Z,12.26
2018-03-18T21:24:09.881Z,11.93
2018-03-18T21:26:36.262Z,12.04
2018-03-18T21:29:02.820Z,12.19
2018-03-18T21:31:29.218Z,12.42
2018-03-18T21:33:55.553Z,12.33
2018-03-18T21:36:22.044Z,11.95
2018-03-18T21:38:48.506Z,12.38
2018-03-18T21:41:14.877Z,12.43
2018-03-18T21:43:41.406Z,11.98
2018-03-18T21:46:08.234Z,11.80
2018-03-18T21:48:34.660Z,12.45
2018-03-18T21:51:01.046Z,11.86
2018-03-18T21:53:27.482Z,11.87
2018-03-18T21:55:53.891Z,11.88
2018-03-18T21:58:20.282Z,11.95
2018-03-18T22:00:46.733Z,11.56
2018-03-18T22:03:13.089Z,11.47
2018-03-18T22:05:39.449Z,11.80
2018-03-18T22:08:05.951Z,11.85
2018-03-18T22:10:32.346Z,12.19
2018-03-18T22:12:58.742Z,12.57
2018-03-18T22:15:25.119Z,12.47
2018-03-18T22:17:51.508Z,12.50
2018-03-18T22:20:17.966Z,12.72
2018-03-18T22:22:44.380Z,12.14
2018-03-18T22:25:10.746Z,11.93
2018-03-18T22:27:37.181Z,12.01
2018-03-18T22:30:03.630Z,12.08
2018-03-18T22:32:30.010Z,12.01
2018-03-18T22:34:56.458Z,12.00
2018-03-18T22:37:22.850Z,11.95
2018-03-18T22:39:49.253Z,11.84
2018-03-18T22:42:15.691Z,11.26
2018-03-18T22:44:42.061Z,11.24
2018-03-18T22:47:08.481Z,11.31
2018-03-18T22:49:34.904Z,11.20
2018-03-18T22:52:01.281Z,11.47
2018-03-18T22:54:27.694Z,11.48
2018-03-18T22:56:54.138Z,10.71
2018-03-18T22:59:20.518Z,10.75
2018-03-18T23:01:47.006Z,11.31
2018-03-18T23:04:13.394Z,10.62
2018-03-18T23:06:39.778Z,10.77
2018-03-18T23:09:06.261Z,10.83
2018-03-18T23:11:32.669Z,10.58
2018-03-18T23:13:59.093Z,10.79
2018-03-18T23:16:25.569Z,11.07
2018-03-18T23:18:51.968Z,11.04
2018-03-18T23:21:18.494Z,10.90
2018-03-18T23:23:44.910Z,10.94
2018-03-18T23:26:11.314Z,10.70
2018-03-18T23:28:37.754Z,10.80
2018-03-18T23:31:04.161Z,9.81
2018-03-18T23:33:30.574Z,10.15
2018-03-18T23:35:57.154Z,10.30
2018-03-18T23:38:23.586Z,10.67
2018-03-18T23:40:50.043Z,10.79
2018-03-18T23:43:16.435Z,10.68
2018-03-18T23:45:42.825Z,10.77
2018-03-18T23:48:09.197Z,10.78
2018-03-18T23:50:35.670Z,10.83
2018-03-18T23:53:02.125Z,10.78
2018-03-18T23:55:28.479Z,10.46
2018-03-18T23:57:54.869Z,10.54
